Time;durP1;ratioP1;P1;durP2;ratioP2;P2;SDS_P1;SDS_P2;PMS_P1;PMS_P2;Temp;Humidity;BMP_temperature;BMP_pressure;BME280_temperature;BME280_humidity;BME280_pressure;Samples;Min_cycle;Max_cycle;Signal;HPM_P1;HPM_P2
2021/12/23 00:02:17;;;;;;;22.80;10.43;;;;;;;-4.55;100.00;98372.75;5073463;28;20040;-56
2021/12/23 00:04:46;;;;;;;25.27;11.15;;;;;;;-4.38;100.00;98380.81;5076683;28;20109;-56
2021/12/23 00:07:11;;;;;;;24.27;11.02;;;;;;;-4.59;100.00;98366.72;5076124;28;20566;-55
2021/12/23 00:12:14;;;;;;;28.23;12.30;;;;;;;-4.38;100.00;98365.53;5074908;28;20663;-55
2021/12/23 00:14:40;;;;;;;27.17;12.38;;;;;;;-4.41;100.00;98370.53;5076525;28;20040;-56
2021/12/23 00:25:18;;;;;;;29.67;12.52;;;;;;;-4.61;100.00;98363.28;5073890;28;20038;-56
2021/12/23 00:27:43;;;;;;;28.50;11.93;;;;;;;-4.53;100.00;98351.59;5077757;28;20024;-57
2021/12/23 00:30:09;;;;;;;35.28;13.68;;;;;;;-4.61;100.00;98352.22;5072389;28;20043;-57
2021/12/23 00:32:36;;;;;;;31.63;13.63;;;;;;;-4.62;100.00;98351.38;5079160;28;20023;-56
2021/12/23 00:35:02;;;;;;;30.38;13.40;;;;;;;-4.71;100.00;98361.31;5076583;28;20114;-57
2021/12/23 00:37:35;;;;;;;30.70;12.50;;;;;;;-4.70;100.00;98351.19;5070183;28;20185;-57
2021/12/23 00:40:01;;;;;;;29.10;11.32;;;;;;;-4.51;100.00;98349.94;5075176;28;20021;-58
2021/12/23 00:42:26;;;;;;;26.30;11.13;;;;;;;-4.47;100.00;98351.75;5069929;28;20121;-56
2021/12/23 00:44:51;;;;;;;27.50;11.45;;;;;;;-4.29;100.00;98347.91;5077334;28;20111;-56
2021/12/23 00:47:17;;;;;;;26.42;10.85;;;;;;;-4.30;100.00;98348.72;5074262;28;20093;-58
2021/12/23 00:49:42;;;;;;;24.08;10.02;;;;;;;-4.17;100.00;98350.75;5075629;28;20035;-57
2021/12/23 00:52:09;;;;;;;25.52;10.80;;;;;;;-4.28;100.00;98342.88;5071164;28;20110;-56
2021/12/23 00:54:35;;;;;;;27.52;10.43;;;;;;;-4.18;100.00;98340.53;5074940;28;20055;-59
2021/12/23 00:57:00;;;;;;;23.08;9.88;;;;;;;-4.25;100.00;98342.06;5075328;28;20071;-56
2021/12/23 00:59:25;;;;;;;23.60;9.95;;;;;;;-4.27;100.00;98343.72;5074672;28;20085;-57
2021/12/23 01:01:51;;;;;;;25.52;11.05;;;;;;;-4.18;100.00;98343.94;5075184;28;20028;-56
2021/12/23 01:04:16;;;;;;;29.23;11.07;;;;;;;-4.51;100.00;98344.84;5075530;28;20033;-57
2021/12/23 01:06:42;;;;;;;20.65;9.88;;;;;;;-4.49;100.00;98340.66;5074248;28;20131;-56
2021/12/23 01:09:08;;;;;;;25.88;11.40;;;;;;;-4.41;100.00;98325.59;5073621;28;20406;-56
2021/12/23 01:11:33;;;;;;;23.85;10.07;;;;;;;-4.09;100.00;98326.31;5079497;28;20127;-57
2021/12/23 01:14:14;;;;;;;22.63;9.98;;;;;;;-3.97;100.00;98329.94;5073116;28;20096;-58
2021/12/23 01:17:11;;;;;;;27.15;11.13;;;;;;;-4.47;100.00;98336.50;5070370;28;20037;-55
2021/12/23 01:19:39;;;;;;;23.70;10.13;;;;;;;-4.65;100.00;98325.84;5073791;28;20146;-58
2021/12/23 01:22:05;;;;;;;23.38;10.20;;;;;;;-4.39;100.00;98328.13;5077967;28;20066;-57
2021/12/23 01:24:33;;;;;;;26.70;11.05;;;;;;;-3.98;100.00;98341.84;5071555;28;20015;-55
2021/12/23 01:27:02;;;;;;;23.92;10.38;;;;;;;-3.99;100.00;98339.25;5069031;28;20043;-55
2021/12/23 01:29:27;;;;;;;24.52;10.90;;;;;;;-4.02;100.00;98334.09;5072859;28;20091;-56
2021/12/23 01:31:53;;;;;;;28.13;10.65;;;;;;;-4.05;100.00;98334.03;5074632;28;20521;-56
2021/12/23 01:34:18;;;;;;;22.00;9.70;;;;;;;-3.95;100.00;98336.81;5071930;28;20024;-56
2021/12/23 01:36:44;;;;;;;26.50;11.10;;;;;;;-4.03;100.00;98327.28;5068704;28;20039;-56
2021/12/23 01:39:09;;;;;;;24.98;11.43;;;;;;;-3.99;100.00;98334.16;5079722;28;20028;-57
2021/12/23 01:41:34;;;;;;;24.88;11.00;;;;;;;-3.97;100.00;98332.50;5076064;28;20047;-57
2021/12/23 01:44:00;;;;;;;27.20;10.80;;;;;;;-4.08;100.00;98324.59;5077656;28;20035;-56
2021/12/23 01:46:25;;;;;;;25.02;11.15;;;;;;;-3.94;100.00;98327.47;5070450;28;20051;-55
2021/12/23 01:48:52;;;;;;;24.30;10.85;;;;;;;-3.97;100.00;98332.50;5077547;28;20026;-56
2021/12/23 01:51:18;;;;;;;25.80;10.48;;;;;;;-4.26;100.00;98331.03;5074888;28;20043;-57
2021/12/23 01:53:43;;;;;;;24.42;9.82;;;;;;;-4.19;100.00;98323.50;5078014;28;20020;-56
2021/12/23 01:56:08;;;;;;;27.13;11.00;;;;;;;-4.05;100.00;98314.50;5077991;28;20040;-56
2021/12/23 01:58:41;;;;;;;22.45;10.18;;;;;;;-4.03;100.00;98317.09;5080298;28;20027;-56
2021/12/23 02:01:07;;;;;;;25.88;10.45;;;;;;;-3.77;100.00;98309.97;5076317;28;20040;-56
2021/12/23 02:03:33;;;;;;;24.77;10.40;;;;;;;-3.81;100.00;98303.97;5076968;28;20129;-57
2021/12/23 02:05:59;;;;;;;24.00;10.70;;;;;;;-3.76;100.00;98302.38;5076945;28;20060;-56
2021/12/23 02:08:24;;;;;;;24.98;10.43;;;;;;;-3.70;100.00;98302.50;5072920;28;20028;-55
2021/12/23 02:10:52;;;;;;;23.50;10.90;;;;;;;-3.71;100.00;98300.78;5073381;28;20046;-57
2021/12/23 02:13:17;;;;;;;25.70;10.80;;;;;;;-4.02;100.00;98301.84;5078960;28;20031;-56
2021/12/23 02:15:42;;;;;;;25.25;11.05;;;;;;;-3.92;100.00;98307.97;5079138;28;20032;-58
2021/12/23 02:18:08;;;;;;;24.85;10.80;;;;;;;-3.78;100.00;98298.94;5078477;28;20030;-58
2021/12/23 02:20:34;;;;;;;23.73;10.18;;;;;;;-3.98;100.00;98288.31;5076616;28;20190;-57
2021/12/23 02:23:01;;;;;;;24.55;10.73;;;;;;;-4.08;100.00;98279.63;5075621;28;20035;-55
2021/12/23 02:25:28;;;;;;;22.67;10.45;;;;;;;-4.02;100.00;98272.94;5076661;28;20747;-57
2021/12/23 02:27:54;;;;;;;24.30;9.82;;;;;;;-4.01;100.00;98269.56;5077179;28;20537;-55
2021/12/23 02:30:27;;;;;;;23.00;10.50;;;;;;;-4.05;100.00;98263.53;5079187;28;20047;-57
2021/12/23 02:32:53;;;;;;;21.13;9.60;;;;;;;-4.15;100.00;98256.53;5074663;28;20675;-57
2021/12/23 02:35:20;;;;;;;22.67;10.13;;;;;;;-4.07;100.00;98249.91;5077060;28;20115;-56
2021/12/23 02:37:47;;;;;;;24.83;10.73;;;;;;;-3.85;100.00;98243.56;5079090;28;20026;-55
2021/12/23 02:40:23;;;;;;;23.35;9.85;;;;;;;-3.65;100.00;98248.22;5076076;28;20024;-55
2021/12/23 02:42:48;;;;;;;25.60;10.43;;;;;;;-3.64;100.00;98244.81;5074608;28;20028;-55
2021/12/23 02:45:14;;;;;;;22.42;10.32;;;;;;;-3.69;100.00;98243.03;5079921;28;20032;-56
2021/12/23 02:47:39;;;;;;;21.10;9.80;;;;;;;-3.74;100.00;98239.53;5079062;28;20023;-56
2021/12/23 02:50:05;;;;;;;22.88;9.48;;;;;;;-3.81;100.00;98232.59;5080573;28;20058;-56
2021/12/23 02:52:32;;;;;;;22.52;10.40;;;;;;;-3.51;100.00;98224.69;5078104;27;20020;-56
2021/12/23 02:54:58;;;;;;;11.48;5.47;;;;;;;-3.41;100.00;98212.94;5073876;28;20027;-56
2021/12/23 02:57:24;;;;;;;22.83;10.32;;;;;;;-3.51;100.00;98211.06;5068476;28;20040;-55
2021/12/23 02:59:51;;;;;;;24.27;9.93;;;;;;;-3.79;100.00;98202.91;5075863;28;20139;-55
2021/12/23 03:02:16;;;;;;;22.85;10.15;;;;;;;-3.81;100.00;98198.59;5076238;28;20071;-56
2021/12/23 03:04:42;;;;;;;23.33;10.05;;;;;;;-3.60;100.00;98200.69;5073773;28;20131;-57
2021/12/23 03:07:07;;;;;;;24.80;10.45;;;;;;;-3.78;100.00;98191.03;5075437;28;20591;-56
2021/12/23 03:09:33;;;;;;;25.75;10.20;;;;;;;-3.53;100.00;98193.19;5075257;28;20035;-55
2021/12/23 03:11:58;;;;;;;23.17;9.65;;;;;;;-3.44;100.00;98182.28;5077224;28;20111;-55
2021/12/23 03:14:24;;;;;;;23.38;10.85;;;;;;;-3.30;100.00;98185.94;5073857;28;20362;-56
2021/12/23 03:16:50;;;;;;;24.00;10.48;;;;;;;-3.39;100.00;98170.47;5078987;28;20846;-55
2021/12/23 03:19:15;;;;;;;20.27;9.85;;;;;;;-3.71;100.00;98173.31;5075307;28;20032;-55
2021/12/23 03:21:41;;;;;;;23.05;10.40;;;;;;;-3.76;100.00;98172.38;5081873;28;20086;-56
2021/12/23 03:24:06;;;;;;;21.25;9.90;;;;;;;-4.28;100.00;98174.78;5074585;28;20122;-56
2021/12/23 03:26:31;;;;;;;24.77;9.82;;;;;;;-3.89;100.00;98167.88;5077965;28;20574;-54
2021/12/23 03:28:57;;;;;;;25.02;10.73;;;;;;;-3.65;100.00;98157.28;5074123;28;20036;-56
2021/12/23 03:31:22;;;;;;;26.00;10.30;;;;;;;-3.59;100.00;98157.38;5074820;28;20041;-55
2021/12/23 03:33:48;;;;;;;26.90;10.32;;;;;;;-3.72;100.00;98171.59;5069767;28;20020;-57
2021/12/23 03:36:13;;;;;;;25.15;10.52;;;;;;;-3.67;100.00;98158.94;5077600;28;20036;-55
2021/12/23 03:38:39;;;;;;;25.85;11.48;;;;;;;-3.43;100.00;98165.31;5077733;28;20036;-54
2021/12/23 03:41:04;;;;;;;28.60;11.45;;;;;;;-3.44;100.00;98161.88;5074968;28;20071;-56
2021/12/23 03:43:29;;;;;;;27.27;11.40;;;;;;;-3.53;100.00;98166.81;5072054;28;20043;-55
2021/12/23 03:45:56;;;;;;;21.63;10.40;;;;;;;-3.61;100.00;98160.75;5078311;28;20577;-55
2021/12/23 03:48:21;;;;;;;28.30;11.57;;;;;;;-3.34;100.00;98163.75;5070745;28;20585;-55
2021/12/23 03:50:48;;;;;;;22.98;9.90;;;;;;;-3.11;100.00;98151.41;5070620;28;20035;-56
2021/12/23 03:53:15;;;;;;;30.30;12.93;;;;;;;-3.07;100.00;98144.63;5075450;28;20028;-56
2021/12/23 03:55:41;;;;;;;26.35;12.00;;;;;;;-3.14;100.00;98135.19;5075731;28;20931;-55
2021/12/23 03:58:06;;;;;;;26.52;12.57;;;;;;;-3.16;100.00;98136.81;5076064;28;20115;-55
2021/12/23 04:00:32;;;;;;;28.30;12.00;;;;;;;-2.99;100.00;98135.41;5073778;28;20039;-55
2021/12/23 04:02:57;;;;;;;25.73;11.18;;;;;;;-2.99;100.00;98125.19;5074609;28;20024;-56
2021/12/23 04:05:23;;;;;;;25.50;11.60;;;;;;;-3.00;100.00;98132.81;5076608;28;20413;-55
2021/12/23 04:07:49;;;;;;;25.75;12.35;;;;;;;-2.94;100.00;98118.47;5077474;28;20564;-56
2021/12/23 04:10:17;;;;;;;24.27;11.65;;;;;;;-3.04;100.00;98118.31;5077069;28;20027;-57
2021/12/23 04:12:43;;;;;;;24.92;11.93;;;;;;;-3.06;100.00;98118.28;5074624;28;20012;-55
2021/12/23 04:15:09;;;;;;;25.85;12.07;;;;;;;-2.98;100.00;98108.19;5073452;28;20425;-55
2021/12/23 04:17:35;;;;;;;28.83;12.82;;;;;;;-2.92;100.00;98101.47;5082264;28;20020;-57
2021/12/23 04:20:14;;;;;;;25.90;12.05;;;;;;;-2.84;100.00;98108.38;5070053;28;20063;-56
2021/12/23 04:22:41;;;;;;;27.88;13.13;;;;;;;-3.22;100.00;98106.13;5069870;28;20753;-55
2021/12/23 04:25:06;;;;;;;25.75;12.05;;;;;;;-3.27;100.00;98107.72;5070014;28;20123;-55
2021/12/23 04:27:32;;;;;;;25.73;12.02;;;;;;;-3.53;100.00;98115.81;5074375;28;20032;-55
2021/12/23 04:29:57;;;;;;;26.08;12.25;;;;;;;-3.73;100.00;98112.94;5071993;28;20020;-56
2021/12/23 04:32:22;;;;;;;27.48;12.23;;;;;;;-3.55;100.00;98114.94;5077298;28;20035;-55
2021/12/23 04:34:48;;;;;;;29.35;12.52;;;;;;;-3.91;100.00;98110.94;5073346;28;20036;-55
2021/12/23 04:37:13;;;;;;;27.15;12.23;;;;;;;-3.69;100.00;98109.63;5073952;28;20127;-55
2021/12/23 04:39:40;;;;;;;31.50;11.85;;;;;;;-3.47;100.00;98105.75;5071822;28;20024;-57
2021/12/23 04:42:05;;;;;;;23.42;11.48;;;;;;;-3.23;100.00;98094.22;5073773;28;20036;-56
2021/12/23 04:44:31;;;;;;;30.65;12.50;;;;;;;-3.21;100.00;98105.31;5076365;28;20024;-56
2021/12/23 04:46:56;;;;;;;26.80;12.80;;;;;;;-3.14;100.00;98094.34;5074206;28;20655;-56
2021/12/23 04:49:23;;;;;;;27.50;12.70;;;;;;;-3.34;100.00;98100.00;5077620;28;20029;-57
2021/12/23 04:51:48;;;;;;;28.58;12.13;;;;;;;-3.24;100.00;98097.59;5074937;28;20548;-54
2021/12/23 04:54:13;;;;;;;26.05;12.07;;;;;;;-3.32;100.00;98090.66;5074888;28;20655;-55
2021/12/23 04:56:39;;;;;;;29.65;12.48;;;;;;;-3.25;100.00;98093.31;5076810;28;20096;-56
2021/12/23 04:59:04;;;;;;;26.17;12.65;;;;;;;-3.56;100.00;98110.69;5072837;28;20093;-56
2021/12/23 05:01:32;;;;;;;26.63;12.32;;;;;;;-3.44;100.00;98110.03;5075724;28;20895;-56
2021/12/23 05:03:57;;;;;;;25.55;11.45;;;;;;;-3.49;100.00;98117.63;5072334;28;20375;-56
2021/12/23 05:06:23;;;;;;;28.13;11.63;;;;;;;-3.52;100.00;98112.47;5074207;28;20513;-57
2021/12/23 05:08:48;;;;;;;22.67;11.00;;;;;;;-3.51;100.00;98107.38;5077799;28;20020;-56
2021/12/23 05:11:14;;;;;;;26.83;10.90;;;;;;;-3.44;100.00;98100.66;5077533;28;20039;-58
2021/12/23 05:13:39;;;;;;;26.58;11.70;;;;;;;-3.51;100.00;98093.75;5071899;28;20410;-58
2021/12/23 05:16:05;;;;;;;25.25;11.88;;;;;;;-3.52;100.00;98090.34;5077082;28;20029;-57
2021/12/23 05:18:30;;;;;;;28.73;11.77;;;;;;;-3.62;100.00;98074.88;5080258;28;20112;-59
2021/12/23 05:20:56;;;;;;;28.05;12.18;;;;;;;-3.48;100.00;98068.31;5072233;28;20055;-57
2021/12/23 05:23:21;;;;;;;29.75;12.77;;;;;;;-3.54;100.00;98068.22;5073630;28;20420;-57
2021/12/23 05:25:47;;;;;;;36.72;12.68;;;;;;;-4.10;100.00;98063.84;5074232;28;20032;-56
2021/12/23 05:28:13;;;;;;;24.67;11.35;;;;;;;-3.51;100.00;98065.69;5076548;28;20617;-55
2021/12/23 05:30:39;;;;;;;23.85;10.63;;;;;;;-3.46;100.00;98073.44;5077739;28;20131;-57
2021/12/23 05:33:04;;;;;;;28.85;12.93;;;;;;;-3.73;100.00;98088.31;5075906;28;20101;-56
2021/12/23 05:35:29;;;;;;;25.67;12.32;;;;;;;-3.69;100.00;98096.88;5082332;28;20493;-55
2021/12/23 05:37:55;;;;;;;27.70;11.77;;;;;;;-4.20;100.00;98100.19;5081794;28;20482;-57
2021/12/23 05:40:24;;;;;;;29.75;12.02;;;;;;;-3.75;100.00;98094.19;5076807;28;20044;-56
2021/12/23 05:42:51;;;;;;;28.35;12.32;;;;;;;-3.54;100.00;98083.53;5080004;28;20030;-56
2021/12/23 05:45:18;;;;;;;28.70;12.90;;;;;;;-3.58;100.00;98086.88;5076507;28;20046;-56
2021/12/23 05:47:45;;;;;;;26.63;11.68;;;;;;;-3.49;100.00;98097.22;5075925;28;20023;-56
2021/12/23 05:50:11;;;;;;;30.17;12.98;;;;;;;-3.28;100.00;98086.47;5074840;28;20024;-57
2021/12/23 05:52:37;;;;;;;37.40;15.35;;;;;;;-3.21;100.00;98072.13;5078629;28;20012;-56
2021/12/23 05:55:05;;;;;;;43.30;17.15;;;;;;;-3.59;100.00;98060.50;5080240;28;20054;-56
2021/12/23 05:57:31;;;;;;;36.15;15.57;;;;;;;-3.43;100.00;98059.06;5076810;28;20090;-56
2021/12/23 05:59:57;;;;;;;36.25;14.18;;;;;;;-3.22;100.00;98044.91;5077744;28;20024;-57
2021/12/23 06:02:22;;;;;;;41.63;17.52;;;;;;;-3.11;100.00;98040.78;5072363;28;20077;-56
2021/12/23 06:04:48;;;;;;;33.83;15.05;;;;;;;-3.09;100.00;98034.00;5079300;28;20669;-56
2021/12/23 06:07:13;;;;;;;39.38;16.65;;;;;;;-3.16;100.00;98040.75;5080259;28;20047;-57
2021/12/23 06:09:38;;;;;;;34.13;15.32;;;;;;;-3.24;100.00;98052.53;5081566;28;20031;-55
2021/12/23 06:12:04;;;;;;;33.75;15.10;;;;;;;-3.38;100.00;98054.88;5082890;28;20098;-57
2021/12/23 06:14:29;;;;;;;40.03;17.23;;;;;;;-2.92;100.00;98044.47;5079353;28;20020;-55
2021/12/23 06:16:55;;;;;;;33.10;16.02;;;;;;;-2.92;100.00;98039.38;5077018;28;20168;-56
2021/12/23 06:19:20;;;;;;;35.67;15.93;;;;;;;-3.07;100.00;98050.19;5078935;28;20084;-56
2021/12/23 06:21:45;;;;;;;42.08;17.42;;;;;;;-2.78;100.00;98052.28;5078501;28;20036;-55
2021/12/23 06:24:11;;;;;;;38.83;16.67;;;;;;;-2.88;100.00;98056.44;5079793;28;20200;-56
2021/12/23 06:26:36;;;;;;;37.40;17.08;;;;;;;-2.57;100.00;98065.34;5082226;28;20067;-56
2021/12/23 06:29:02;;;;;;;42.22;17.52;;;;;;;-2.48;100.00;98050.94;5082571;28;20024;-58
2021/12/23 06:31:27;;;;;;;38.63;18.10;;;;;;;-2.65;100.00;98051.59;5083661;28;20096;-55
2021/12/23 06:33:53;;;;;;;20.70;9.77;;;;;;;-2.47;100.00;98037.34;5080747;28;20661;-56
2021/12/23 06:36:18;;;;;;;31.67;14.02;;;;;;;-2.66;100.00;98047.34;5077900;28;20078;-57
2021/12/23 06:38:44;;;;;;;34.92;15.32;;;;;;;-3.00;100.00;98040.94;5076357;28;20062;-56
2021/12/23 06:41:11;;;;;;;40.47;17.60;;;;;;;-2.72;100.00;98052.38;5078490;28;20033;-55
2021/12/23 06:43:37;;;;;;;36.15;16.95;;;;;;;-2.55;100.00;98055.16;5083236;28;20027;-55
2021/12/23 06:46:03;;;;;;;35.47;16.27;;;;;;;-2.50;100.00;98052.63;5077889;28;20488;-56
2021/12/23 06:48:30;;;;;;;37.85;17.02;;;;;;;-2.65;100.00;98033.72;5086691;28;20513;-57
2021/12/23 06:50:56;;;;;;;35.85;15.85;;;;;;;-2.49;100.00;98033.94;5082543;28;20414;-56
2021/12/23 06:53:23;;;;;;;38.03;17.85;;;;;;;-2.59;100.00;98023.59;5091788;27;20020;-56
2021/12/23 06:55:50;;;;;;;38.78;17.42;;;;;;;-2.76;100.00;98025.97;5083026;28;20098;-55
2021/12/23 06:58:16;;;;;;;40.63;18.42;;;;;;;-2.68;100.00;98005.63;5079747;28;20137;-55
2021/12/23 07:00:42;;;;;;;46.08;19.60;;;;;;;-3.03;100.00;98007.72;5079800;28;20070;-57
2021/12/23 07:03:07;;;;;;;37.45;17.38;;;;;;;-2.91;100.00;98016.38;5077238;28;20036;-56
2021/12/23 07:05:32;;;;;;;39.13;16.92;;;;;;;-3.15;100.00;98008.44;5076614;28;20042;-55
2021/12/23 07:08:08;;;;;;;40.05;18.15;;;;;;;-2.76;100.00;98010.66;5079756;28;20031;-56
2021/12/23 07:10:34;;;;;;;32.25;14.48;;;;;;;-2.53;100.00;97999.84;5081263;28;20036;-58
2021/12/23 07:13:00;;;;;;;42.35;17.35;;;;;;;-2.62;100.00;98017.59;5080007;28;20027;-55
2021/12/23 07:15:26;;;;;;;33.88;15.23;;;;;;;-2.25;100.00;98011.19;5082540;28;20032;-56
2021/12/23 07:17:56;;;;;;;35.45;16.02;;;;;;;-2.52;100.00;98012.63;5081852;28;20020;-55
2021/12/23 07:20:24;;;;;;;38.17;16.20;;;;;;;-2.28;100.00;98012.84;5079210;28;20150;-58
2021/12/23 07:22:50;;;;;;;39.15;16.60;;;;;;;-2.30;100.00;98011.97;5083223;28;20028;-58
2021/12/23 07:25:15;;;;;;;38.25;16.52;;;;;;;-2.51;100.00;98010.91;5076603;28;20042;-56
2021/12/23 07:27:42;;;;;;;43.17;18.60;;;;;;;-2.41;100.00;98019.53;5077804;28;20494;-58
2021/12/23 07:30:10;;;;;;;41.25;17.50;;;;;;;-2.22;100.00;98024.00;5078439;28;20043;-58
2021/12/23 07:32:35;;;;;;;37.88;16.67;;;;;;;-2.49;100.00;98018.59;5076568;28;20040;-56
2021/12/23 07:35:00;;;;;;;35.67;15.45;;;;;;;-2.09;100.00;98019.03;5081246;28;20036;-56
2021/12/23 07:37:26;;;;;;;46.50;18.88;;;;;;;-2.14;100.00;98017.25;5080898;28;20484;-55
2021/12/23 07:39:54;;;;;;;45.67;18.15;;;;;;;-2.48;100.00;98015.19;5076749;28;20173;-56
2021/12/23 07:42:20;;;;;;;86.68;16.70;;;;;;;-1.38;100.00;98020.44;5081742;28;20036;-55
2021/12/23 07:44:46;;;;;;;45.28;18.45;;;;;;;-1.88;100.00;98014.09;5079852;28;20028;-55
2021/12/23 07:47:13;;;;;;;88.68;15.68;;;;;;;-1.61;100.00;98010.06;5081194;28;20095;-56
2021/12/23 07:49:41;;;;;;;46.40;18.33;;;;;;;-1.94;100.00;98004.66;5084506;28;20061;-57
2021/12/23 07:52:07;;;;;;;42.53;18.08;;;;;;;-1.85;100.00;98014.13;5081870;28;20028;-56
2021/12/23 07:54:34;;;;;;;42.30;17.05;;;;;;;-1.85;100.00;98003.91;5076975;28;20039;-55
2021/12/23 07:57:00;;;;;;;42.10;17.50;;;;;;;-1.52;100.00;97994.78;5079203;28;20109;-55
2021/12/23 07:59:25;;;;;;;40.22;17.65;;;;;;;-1.52;100.00;97992.22;5082338;28;20621;-56
2021/12/23 08:01:50;;;;;;;52.60;15.65;;;;;;;-1.33;100.00;97982.94;5077789;28;20043;-58
2021/12/23 08:04:16;;;;;;;43.60;19.35;;;;;;;-1.70;100.00;97976.72;5080522;28;20028;-56
2021/12/23 08:06:42;;;;;;;46.80;20.13;;;;;;;-1.86;100.00;97976.59;5076307;28;20040;-55
2021/12/23 08:09:08;;;;;;;43.53;18.88;;;;;;;-1.84;100.00;97980.06;5074935;28;20109;-56
2021/12/23 08:11:33;;;;;;;43.63;19.13;;;;;;;-1.52;100.00;97981.97;5079013;28;20036;-56
2021/12/23 08:13:58;;;;;;;42.88;18.90;;;;;;;-1.90;100.00;97982.53;5082152;28;20491;-57
2021/12/23 08:16:24;;;;;;;42.28;17.05;;;;;;;-1.54;100.00;97970.88;5080537;28;20097;-56
2021/12/23 08:18:49;;;;;;;33.00;14.27;;;;;;;-1.30;100.00;97974.44;5083028;28;20729;-55
2021/12/23 08:21:15;;;;;;;45.97;19.73;;;;;;;-1.26;100.00;97968.50;5075793;28;20040;-56
2021/12/23 08:23:40;;;;;;;39.83;17.75;;;;;;;-1.36;100.00;97963.31;5078907;28;20048;-57
2021/12/23 08:26:11;;;;;;;39.85;18.13;;;;;;;-0.93;100.00;97984.88;5076674;28;20044;-55
2021/12/23 08:28:36;;;;;;;36.25;17.15;;;;;;;-1.30;100.00;97982.13;5081494;28;20064;-56
2021/12/23 08:31:02;;;;;;;40.78;18.48;;;;;;;-1.27;100.00;97977.00;5076359;28;20745;-58
2021/12/23 08:33:28;;;;;;;38.47;17.65;;;;;;;-1.13;100.00;97964.28;5077728;28;20028;-56
2021/12/23 08:35:54;;;;;;;38.00;17.27;;;;;;;-0.82;100.00;97978.09;5076886;28;20040;-56
2021/12/23 08:38:20;;;;;;;38.80;17.55;;;;;;;-0.77;100.00;97963.59;5076208;28;20107;-56
2021/12/23 08:40:45;;;;;;;43.70;18.52;;;;;;;-0.75;100.00;97961.00;5073065;28;20043;-56
2021/12/23 08:43:12;;;;;;;44.10;20.65;;;;;;;-0.74;100.00;97948.22;5073483;28;20039;-57
2021/12/23 08:45:38;;;;;;;72.28;17.30;;;;;;;-0.07;100.00;97932.13;5071582;28;20088;-56
2021/12/23 08:48:03;;;;;;;37.42;17.55;;;;;;;-0.42;100.00;97940.63;5079478;28;20019;-55
2021/12/23 08:50:30;;;;;;;1999.90;137.43;;;;;;;1.39;100.00;97922.31;5072313;28;20046;-56
2021/12/23 08:52:56;;;;;;;44.38;18.85;;;;;;;-0.61;100.00;97936.31;5075012;28;20016;-57
2021/12/23 08:55:25;;;;;;;42.53;18.98;;;;;;;0.09;100.00;97927.84;5083808;28;20036;-56
2021/12/23 08:57:50;;;;;;;483.50;36.70;;;;;;;1.24;100.00;97928.41;5078189;28;20024;-57
2021/12/23 09:00:18;;;;;;;38.33;18.33;;;;;;;0.30;100.00;97931.25;5082034;28;20032;-53
2021/12/23 09:02:48;;;;;;;39.05;18.02;;;;;;;-0.24;100.00;97929.56;5086652;28;20016;-55
2021/12/23 09:05:14;;;;;;;37.88;18.05;;;;;;;-0.55;99.44;97933.78;5082002;28;20110;-55
2021/12/23 09:07:40;;;;;;;40.63;18.65;;;;;;;-0.57;100.00;97935.44;5085776;28;20115;-56
2021/12/23 09:10:09;;;;;;;38.13;18.58;;;;;;;-0.23;95.65;97941.50;5081539;28;20104;-56
2021/12/23 09:12:35;;;;;;;46.15;20.15;;;;;;;-0.08;100.00;97945.78;5083629;28;20094;-55
2021/12/23 09:15:00;;;;;;;38.22;18.02;;;;;;;-0.45;100.00;97955.13;5081500;28;20068;-56
2021/12/23 09:17:26;;;;;;;39.55;18.33;;;;;;;-0.14;98.48;97950.06;5084674;28;20036;-57
2021/12/23 09:19:51;;;;;;;34.50;16.58;;;;;;;-0.35;100.00;97950.88;5083787;28;20122;-56
2021/12/23 09:22:16;;;;;;;43.58;20.73;;;;;;;-0.02;99.60;97945.81;5078135;28;20131;-56
2021/12/23 09:24:45;;;;;;;38.38;17.58;;;;;;;-0.84;100.00;97942.22;5078268;28;20023;-58
2021/12/23 09:27:25;;;;;;;40.97;18.85;;;;;;;-0.50;100.00;97941.47;5080541;28;20067;-57
2021/12/23 09:35:02;;;;;;;41.85;18.40;;;;;;;-0.21;97.48;97950.03;5079950;28;20084;-57
2021/12/23 09:37:28;;;;;;;42.80;19.65;;;;;;;-0.15;97.69;97943.22;5077124;27;20040;-56
2021/12/23 09:39:56;;;;;;;40.67;19.17;;;;;;;-0.27;97.76;97926.97;5077578;28;20023;-57
2021/12/23 09:42:31;;;;;;;40.40;18.85;;;;;;;-0.17;96.31;97919.28;5081411;28;20075;-57
2021/12/23 09:45:01;;;;;;;34.50;17.58;;;;;;;0.09;99.95;97925.28;5081456;28;20138;-56
2021/12/23 09:47:32;;;;;;;43.65;18.83;;;;;;;-0.13;100.00;97931.25;5081944;28;20036;-57
2021/12/23 09:50:00;;;;;;;37.93;18.13;;;;;;;-0.09;100.00;97922.69;5078270;28;20035;-57
2021/12/23 09:52:29;;;;;;;38.13;17.20;;;;;;;-0.31;97.78;97922.72;5080148;28;20379;-56
2021/12/23 09:54:56;;;;;;;39.75;18.35;;;;;;;-0.01;99.00;97915.88;5077918;28;20548;-57
2021/12/23 09:57:22;;;;;;;44.72;17.75;;;;;;;-0.50;95.98;97918.41;5081540;28;20126;-56
2021/12/23 09:59:48;;;;;;;41.05;19.42;;;;;;;-0.02;97.16;97904.78;5078568;28;20035;-57
2021/12/23 10:02:14;;;;;;;39.00;19.00;;;;;;;-0.18;96.66;97897.06;5080127;28;20098;-56
2021/12/23 10:04:40;;;;;;;41.25;18.73;;;;;;;-0.18;97.62;97887.69;5085512;28;20509;-57
2021/12/23 10:07:05;;;;;;;42.25;20.13;;;;;;;-0.14;97.21;97881.69;5082736;28;20039;-56
2021/12/23 10:13:18;;;;;;;42.47;19.67;;;;;;;-0.08;97.58;97862.88;5070685;28;20036;-56
2021/12/23 10:37:23;;;;;;;45.90;18.23;;;;;;;-0.17;100.00;97847.50;5045459;28;20401;-58
2021/12/23 10:40:06;;;;;;;42.92;19.17;;;;;;;0.53;94.61;97847.38;5080179;28;20031;-57
2021/12/23 10:42:32;;;;;;;43.80;19.45;;;;;;;0.36;96.36;97846.56;5083885;28;20047;-56
2021/12/23 10:45:09;;;;;;;43.38;19.55;;;;;;;0.46;98.24;97835.44;5084878;28;20028;-55
2021/12/23 10:47:52;;;;;;;32.83;15.35;;;;;;;0.65;99.61;97828.50;5084271;28;20063;-58
2021/12/23 10:50:46;;;;;;;30.33;12.95;;;;;;;0.45;100.00;97832.84;5079622;28;20035;-56
2021/12/23 10:59:14;;;;;;;35.38;16.20;;;;;;;0.70;99.83;97824.22;5083589;28;20046;-55
2021/12/23 11:02:01;;;;;;;28.45;12.40;;;;;;;0.94;100.00;97820.66;5079423;28;20734;-55
2021/12/23 11:04:28;;;;;;;38.58;17.75;;;;;;;0.40;100.00;97814.91;5077756;28;20060;-55
2021/12/23 11:07:48;;;;;;;37.60;17.23;;;;;;;0.87;100.00;97815.56;5081462;28;20045;-56
2021/12/23 11:10:15;;;;;;;35.28;16.27;;;;;;;1.02;100.00;97809.50;5071614;28;20089;-55
2021/12/23 11:37:55;;;;;;;35.67;16.13;;;;;;;0.37;99.86;97779.00;5081946;28;20039;-55
2021/12/23 11:43:13;;;;;;;41.33;18.50;;;;;;;1.30;93.11;97759.59;5076007;28;20070;-56
2021/12/23 11:45:38;;;;;;;39.35;17.60;;;;;;;1.50;91.52;97766.31;5080918;28;20032;-55
2021/12/23 11:48:06;;;;;;;39.92;16.58;;;;;;;0.86;94.56;97762.50;5062447;28;20102;-55
2021/12/23 11:50:41;;;;;;;42.25;17.88;;;;;;;1.22;92.89;97761.41;5073114;28;20095;-56
2021/12/23 11:53:08;;;;;;;42.45;16.75;;;;;;;1.31;93.28;97756.19;5075604;28;20039;-56
2021/12/23 11:55:35;;;;;;;39.58;17.83;;;;;;;1.17;95.04;97747.72;5075426;28;20200;-55
2021/12/23 11:58:01;;;;;;;42.05;17.67;;;;;;;0.98;93.03;97741.03;5074767;28;20789;-57
2021/12/23 12:00:41;;;;;;;43.15;18.17;;;;;;;0.84;94.89;97731.69;5077195;28;20044;-54
2021/12/23 12:03:08;;;;;;;39.97;16.77;;;;;;;1.26;94.56;97733.97;5080393;28;20139;-55
2021/12/23 12:05:35;;;;;;;43.55;16.90;;;;;;;1.14;93.63;97733.19;5074727;28;20774;-54
2021/12/23 12:08:08;;;;;;;42.33;16.48;;;;;;;0.85;95.52;97730.84;5077729;28;20031;-54
2021/12/23 12:10:35;;;;;;;42.30;17.77;;;;;;;1.39;94.37;97739.84;5060688;28;20107;-57
2021/12/23 12:13:10;;;;;;;44.22;17.48;;;;;;;0.93;96.02;97726.50;5079779;28;20106;-56
2021/12/23 12:15:39;;;;;;;41.55;17.02;;;;;;;1.11;94.75;97722.94;5079895;28;20043;-57
2021/12/23 12:18:11;;;;;;;39.72;17.25;;;;;;;1.06;93.53;97722.13;5084523;28;20055;-56
2021/12/23 12:20:58;;;;;;;42.80;16.70;;;;;;;1.31;91.72;97735.63;5084272;28;20032;-55
2021/12/23 12:23:39;;;;;;;42.63;17.15;;;;;;;1.02;94.50;97717.03;5079591;28;20024;-56
2021/12/23 12:26:12;;;;;;;42.25;18.17;;;;;;;1.21;93.76;97718.56;5081391;28;20040;-56
2021/12/23 12:28:45;;;;;;;41.20;17.42;;;;;;;1.12;93.97;97708.38;5072178;28;20024;-56